sensor_id;sensor_type;location;lat;lon;timestamp;P1;durP1;ratioP1;P2;durP2;ratioP2
20399;SDS011;10359;53.596;22.520;2023-03-01T00:01:30;10.13;;;6.03;;
20399;SDS011;10359;53.596;22.520;2023-03-01T00:04:20;8.23;;;5.83;;
20399;SDS011;10359;53.596;22.520;2023-03-01T00:07:10;10.70;;;6.10;;
20399;SDS011;10359;53.596;22.520;2023-03-01T00:10:00;9.07;;;5.80;;
20399;SDS011;10359;53.596;22.520;2023-03-01T00:12:52;10.00;;;6.10;;
20399;SDS011;10359;53.596;22.520;2023-03-01T00:15:42;8.77;;;6.10;;
20399;SDS011;10359;53.596;22.520;2023-03-01T00:18:32;9.47;;;6.30;;
20399;SDS011;10359;53.596;22.520;2023-03-01T00:21:23;9.07;;;6.27;;
20399;SDS011;10359;53.596;22.520;2023-03-01T00:24:13;9.00;;;6.47;;
20399;SDS011;10359;53.596;22.520;2023-03-01T00:27:03;8.07;;;6.00;;
20399;SDS011;10359;53.596;22.520;2023-03-01T00:29:56;8.67;;;5.87;;
20399;SDS011;10359;53.596;22.520;2023-03-01T00:32:45;10.40;;;6.27;;
20399;SDS011;10359;53.596;22.520;2023-03-01T00:35:37;8.27;;;5.80;;
20399;SDS011;10359;53.596;22.520;2023-03-01T00:38:30;9.90;;;5.90;;
20399;SDS011;10359;53.596;22.520;2023-03-01T00:41:23;10.43;;;6.27;;
20399;SDS011;10359;53.596;22.520;2023-03-01T00:44:15;8.60;;;6.23;;
20399;SDS011;10359;53.596;22.520;2023-03-01T00:47:07;9.40;;;5.77;;
20399;SDS011;10359;53.596;22.520;2023-03-01T00:49:57;10.63;;;6.40;;
20399;SDS011;10359;53.596;22.520;2023-03-01T00:52:51;9.97;;;5.87;;
20399;SDS011;10359;53.596;22.520;2023-03-01T00:55:43;10.20;;;6.47;;
20399;SDS011;10359;53.596;22.520;2023-03-01T00:58:32;11.63;;;6.23;;
20399;SDS011;10359;53.596;22.520;2023-03-01T01:01:24;9.37;;;6.23;;
20399;SDS011;10359;53.596;22.520;2023-03-01T01:04:20;11.17;;;6.33;;
20399;SDS011;10359;53.596;22.520;2023-03-01T01:07:11;9.07;;;5.80;;
20399;SDS011;10359;53.596;22.520;2023-03-01T01:10:02;12.13;;;6.50;;
20399;SDS011;10359;53.596;22.520;2023-03-01T01:12:53;10.03;;;6.73;;
20399;SDS011;10359;53.596;22.520;2023-03-01T01:15:44;8.77;;;5.97;;
20399;SDS011;10359;53.596;22.520;2023-03-01T01:18:34;9.13;;;6.13;;
20399;SDS011;10359;53.596;22.520;2023-03-01T01:21:26;8.80;;;6.10;;
20399;SDS011;10359;53.596;22.520;2023-03-01T01:24:17;7.77;;;5.50;;
20399;SDS011;10359;53.596;22.520;2023-03-01T01:27:10;13.30;;;6.73;;
20399;SDS011;10359;53.596;22.520;2023-03-01T01:30:00;9.50;;;6.27;;
20399;SDS011;10359;53.596;22.520;2023-03-01T01:32:50;10.80;;;6.70;;
20399;SDS011;10359;53.596;22.520;2023-03-01T01:35:41;10.50;;;6.73;;
20399;SDS011;10359;53.596;22.520;2023-03-01T01:38:36;12.13;;;7.20;;
20399;SDS011;10359;53.596;22.520;2023-03-01T01:41:27;9.80;;;6.13;;
20399;SDS011;10359;53.596;22.520;2023-03-01T01:44:18;10.80;;;6.73;;
20399;SDS011;10359;53.596;22.520;2023-03-01T01:47:12;11.07;;;6.07;;
20399;SDS011;10359;53.596;22.520;2023-03-01T01:50:08;8.60;;;6.33;;
20399;SDS011;10359;53.596;22.520;2023-03-01T01:53:06;11.00;;;6.77;;
20399;SDS011;10359;53.596;22.520;2023-03-01T01:56:03;10.40;;;6.63;;
20399;SDS011;10359;53.596;22.520;2023-03-01T01:58:55;11.60;;;6.77;;
20399;SDS011;10359;53.596;22.520;2023-03-01T02:01:47;9.03;;;6.43;;
20399;SDS011;10359;53.596;22.520;2023-03-01T02:04:36;8.40;;;5.83;;
20399;SDS011;10359;53.596;22.520;2023-03-01T02:07:26;13.33;;;6.90;;
20399;SDS011;10359;53.596;22.520;2023-03-01T02:13:07;10.90;;;6.67;;
20399;SDS011;10359;53.596;22.520;2023-03-01T02:15:58;12.50;;;6.90;;
20399;SDS011;10359;53.596;22.520;2023-03-01T02:18:49;11.30;;;6.73;;
20399;SDS011;10359;53.596;22.520;2023-03-01T02:21:42;8.97;;;6.13;;
20399;SDS011;10359;53.596;22.520;2023-03-01T02:24:40;10.87;;;6.93;;
20399;SDS011;10359;53.596;22.520;2023-03-01T02:27:38;11.93;;;7.20;;
20399;SDS011;10359;53.596;22.520;2023-03-01T02:30:36;9.90;;;6.27;;
20399;SDS011;10359;53.596;22.520;2023-03-01T02:33:46;12.23;;;6.70;;
20399;SDS011;10359;53.596;22.520;2023-03-01T02:36:38;14.30;;;7.70;;
20399;SDS011;10359;53.596;22.520;2023-03-01T02:39:30;10.40;;;6.43;;
20399;SDS011;10359;53.596;22.520;2023-03-01T02:42:30;9.07;;;5.93;;
20399;SDS011;10359;53.596;22.520;2023-03-01T02:45:30;12.67;;;7.23;;
20399;SDS011;10359;53.596;22.520;2023-03-01T02:48:21;11.47;;;7.00;;
20399;SDS011;10359;53.596;22.520;2023-03-01T02:51:14;13.93;;;7.53;;
20399;SDS011;10359;53.596;22.520;2023-03-01T02:54:17;12.37;;;7.07;;
20399;SDS011;10359;53.596;22.520;2023-03-01T02:57:13;14.93;;;6.87;;
20399;SDS011;10359;53.596;22.520;2023-03-01T03:00:04;13.00;;;7.33;;
20399;SDS011;10359;53.596;22.520;2023-03-01T03:03:07;11.27;;;7.37;;
20399;SDS011;10359;53.596;22.520;2023-03-01T03:05:59;13.33;;;7.80;;
20399;SDS011;10359;53.596;22.520;2023-03-01T03:08:51;17.57;;;7.83;;
20399;SDS011;10359;53.596;22.520;2023-03-01T03:11:41;13.63;;;7.67;;
20399;SDS011;10359;53.596;22.520;2023-03-01T03:14:31;11.83;;;6.80;;
20399;SDS011;10359;53.596;22.520;2023-03-01T03:17:22;12.83;;;7.43;;
20399;SDS011;10359;53.596;22.520;2023-03-01T03:20:12;13.80;;;7.50;;
20399;SDS011;10359;53.596;22.520;2023-03-01T03:23:09;13.83;;;8.20;;
20399;SDS011;10359;53.596;22.520;2023-03-01T03:25:59;12.37;;;7.90;;
20399;SDS011;10359;53.596;22.520;2023-03-01T03:28:49;12.07;;;7.47;;
20399;SDS011;10359;53.596;22.520;2023-03-01T03:31:38;14.50;;;8.37;;
20399;SDS011;10359;53.596;22.520;2023-03-01T03:34:28;13.60;;;7.80;;
20399;SDS011;10359;53.596;22.520;2023-03-01T03:37:17;15.57;;;9.07;;
20399;SDS011;10359;53.596;22.520;2023-03-01T03:40:22;15.47;;;8.53;;
20399;SDS011;10359;53.596;22.520;2023-03-01T03:43:13;11.33;;;8.20;;
20399;SDS011;10359;53.596;22.520;2023-03-01T03:46:04;11.97;;;7.30;;
20399;SDS011;10359;53.596;22.520;2023-03-01T03:48:55;14.70;;;8.23;;
20399;SDS011;10359;53.596;22.520;2023-03-01T03:51:45;13.50;;;7.87;;
20399;SDS011;10359;53.596;22.520;2023-03-01T03:54:38;14.27;;;7.50;;
20399;SDS011;10359;53.596;22.520;2023-03-01T03:57:29;14.50;;;7.97;;
20399;SDS011;10359;53.596;22.520;2023-03-01T04:00:20;11.50;;;7.43;;
20399;SDS011;10359;53.596;22.520;2023-03-01T04:03:11;12.77;;;8.10;;
20399;SDS011;10359;53.596;22.520;2023-03-01T04:06:03;15.00;;;7.93;;
20399;SDS011;10359;53.596;22.520;2023-03-01T04:08:53;13.13;;;7.73;;
20399;SDS011;10359;53.596;22.520;2023-03-01T04:11:47;12.33;;;7.50;;
20399;SDS011;10359;53.596;22.520;2023-03-01T04:14:38;12.43;;;7.80;;
20399;SDS011;10359;53.596;22.520;2023-03-01T04:17:28;12.60;;;7.67;;
20399;SDS011;10359;53.596;22.520;2023-03-01T04:20:19;12.27;;;7.67;;
20399;SDS011;10359;53.596;22.520;2023-03-01T04:23:12;13.33;;;7.37;;
20399;SDS011;10359;53.596;22.520;2023-03-01T04:26:06;9.70;;;7.10;;
20399;SDS011;10359;53.596;22.520;2023-03-01T04:28:56;12.67;;;7.33;;
20399;SDS011;10359;53.596;22.520;2023-03-01T04:31:48;13.37;;;7.40;;
20399;SDS011;10359;53.596;22.520;2023-03-01T04:34:38;12.93;;;7.47;;
20399;SDS011;10359;53.596;22.520;2023-03-01T04:37:28;12.63;;;8.07;;
20399;SDS011;10359;53.596;22.520;2023-03-01T04:40:18;10.73;;;7.30;;
20399;SDS011;10359;53.596;22.520;2023-03-01T04:43:09;11.73;;;7.40;;
20399;SDS011;10359;53.596;22.520;2023-03-01T04:46:00;11.57;;;7.10;;
20399;SDS011;10359;53.596;22.520;2023-03-01T04:48:52;12.07;;;7.70;;
20399;SDS011;10359;53.596;22.520;2023-03-01T04:51:42;13.77;;;7.83;;
20399;SDS011;10359;53.596;22.520;2023-03-01T04:54:33;10.47;;;6.50;;
20399;SDS011;10359;53.596;22.520;2023-03-01T04:57:23;15.63;;;7.83;;
20399;SDS011;10359;53.596;22.520;2023-03-01T05:00:13;10.80;;;6.90;;
20399;SDS011;10359;53.596;22.520;2023-03-01T05:03:10;11.27;;;6.83;;
20399;SDS011;10359;53.596;22.520;2023-03-01T05:06:01;10.27;;;6.90;;
20399;SDS011;10359;53.596;22.520;2023-03-01T05:08:50;11.67;;;6.97;;
20399;SDS011;10359;53.596;22.520;2023-03-01T05:11:40;10.60;;;6.83;;
20399;SDS011;10359;53.596;22.520;2023-03-01T05:14:30;12.27;;;6.77;;
20399;SDS011;10359;53.596;22.520;2023-03-01T05:17:20;12.50;;;6.87;;
20399;SDS011;10359;53.596;22.520;2023-03-01T05:20:11;9.53;;;6.93;;
20399;SDS011;10359;53.596;22.520;2023-03-01T05:23:03;11.40;;;6.80;;
20399;SDS011;10359;53.596;22.520;2023-03-01T05:25:56;12.07;;;6.50;;
20399;SDS011;10359;53.596;22.520;2023-03-01T05:28:47;12.17;;;7.00;;
20399;SDS011;10359;53.596;22.520;2023-03-01T05:31:37;11.57;;;6.47;;
20399;SDS011;10359;53.596;22.520;2023-03-01T05:34:27;10.93;;;6.63;;
20399;SDS011;10359;53.596;22.520;2023-03-01T05:37:18;11.60;;;6.60;;
20399;SDS011;10359;53.596;22.520;2023-03-01T05:40:12;12.53;;;7.10;;
20399;SDS011;10359;53.596;22.520;2023-03-01T05:43:03;14.20;;;9.27;;
20399;SDS011;10359;53.596;22.520;2023-03-01T05:45:53;12.43;;;8.37;;
20399;SDS011;10359;53.596;22.520;2023-03-01T05:48:49;8.80;;;6.70;;
20399;SDS011;10359;53.596;22.520;2023-03-01T05:51:39;11.37;;;7.90;;
20399;SDS011;10359;53.596;22.520;2023-03-01T05:54:29;14.33;;;8.13;;
20399;SDS011;10359;53.596;22.520;2023-03-01T05:57:21;10.13;;;7.10;;
20399;SDS011;10359;53.596;22.520;2023-03-01T06:00:12;10.90;;;7.60;;
20399;SDS011;10359;53.596;22.520;2023-03-01T06:03:10;16.23;;;9.77;;
20399;SDS011;10359;53.596;22.520;2023-03-01T06:06:00;13.37;;;8.17;;
20399;SDS011;10359;53.596;22.520;2023-03-01T06:08:50;11.57;;;7.60;;
20399;SDS011;10359;53.596;22.520;2023-03-01T06:11:40;10.40;;;7.23;;
20399;SDS011;10359;53.596;22.520;2023-03-01T06:14:32;19.93;;;12.07;;
20399;SDS011;10359;53.596;22.520;2023-03-01T06:17:22;10.23;;;7.20;;
20399;SDS011;10359;53.596;22.520;2023-03-01T06:20:12;11.07;;;7.77;;
20399;SDS011;10359;53.596;22.520;2023-03-01T06:23:04;12.00;;;7.43;;
20399;SDS011;10359;53.596;22.520;2023-03-01T06:25:56;13.90;;;8.50;;
20399;SDS011;10359;53.596;22.520;2023-03-01T06:28:46;14.23;;;8.83;;
20399;SDS011;10359;53.596;22.520;2023-03-01T06:31:37;13.57;;;8.43;;
20399;SDS011;10359;53.596;22.520;2023-03-01T06:34:27;14.67;;;8.90;;
20399;SDS011;10359;53.596;22.520;2023-03-01T06:37:17;15.43;;;9.03;;
20399;SDS011;10359;53.596;22.520;2023-03-01T06:40:08;13.60;;;8.90;;
20399;SDS011;10359;53.596;22.520;2023-03-01T06:43:00;13.80;;;9.57;;
20399;SDS011;10359;53.596;22.520;2023-03-01T06:45:50;13.23;;;9.73;;
20399;SDS011;10359;53.596;22.520;2023-03-01T06:48:41;14.63;;;8.33;;
20399;SDS011;10359;53.596;22.520;2023-03-01T06:51:31;17.90;;;9.50;;
20399;SDS011;10359;53.596;22.520;2023-03-01T06:54:21;12.23;;;8.10;;
20399;SDS011;10359;53.596;22.520;2023-03-01T06:57:11;11.47;;;7.83;;
20399;SDS011;10359;53.596;22.520;2023-03-01T07:00:01;13.50;;;8.23;;
20399;SDS011;10359;53.596;22.520;2023-03-01T07:02:51;13.17;;;7.37;;
20399;SDS011;10359;53.596;22.520;2023-03-01T07:05:43;11.60;;;7.90;;
20399;SDS011;10359;53.596;22.520;2023-03-01T07:08:32;11.80;;;7.40;;
20399;SDS011;10359;53.596;22.520;2023-03-01T07:11:22;10.40;;;7.20;;
20399;SDS011;10359;53.596;22.520;2023-03-01T07:14:12;10.40;;;6.70;;
20399;SDS011;10359;53.596;22.520;2023-03-01T07:17:02;9.13;;;6.77;;
20399;SDS011;10359;53.596;22.520;2023-03-01T07:19:52;12.37;;;7.47;;
20399;SDS011;10359;53.596;22.520;2023-03-01T07:22:43;12.87;;;7.63;;
20399;SDS011;10359;53.596;22.520;2023-03-01T07:25:32;13.00;;;8.30;;
20399;SDS011;10359;53.596;22.520;2023-03-01T07:28:23;12.43;;;7.83;;
20399;SDS011;10359;53.596;22.520;2023-03-01T07:31:13;15.80;;;8.13;;
20399;SDS011;10359;53.596;22.520;2023-03-01T07:34:04;12.73;;;7.90;;
20399;SDS011;10359;53.596;22.520;2023-03-01T07:36:54;12.53;;;8.27;;
20399;SDS011;10359;53.596;22.520;2023-03-01T07:39:45;12.47;;;8.43;;
20399;SDS011;10359;53.596;22.520;2023-03-01T07:42:35;14.43;;;8.20;;
20399;SDS011;10359;53.596;22.520;2023-03-01T07:45:26;15.13;;;8.70;;
20399;SDS011;10359;53.596;22.520;2023-03-01T07:48:16;18.77;;;9.83;;
20399;SDS011;10359;53.596;22.520;2023-03-01T07:51:06;14.23;;;9.23;;
20399;SDS011;10359;53.596;22.520;2023-03-01T07:53:56;12.60;;;8.67;;
20399;SDS011;10359;53.596;22.520;2023-03-01T07:56:48;14.47;;;9.27;;
20399;SDS011;10359;53.596;22.520;2023-03-01T07:59:38;15.87;;;8.67;;
20399;SDS011;10359;53.596;22.520;2023-03-01T08:02:28;14.40;;;10.27;;
20399;SDS011;10359;53.596;22.520;2023-03-01T08:05:18;15.50;;;10.47;;
20399;SDS011;10359;53.596;22.520;2023-03-01T08:08:09;15.70;;;9.47;;
20399;SDS011;10359;53.596;22.520;2023-03-01T08:11:00;14.80;;;9.40;;
20399;SDS011;10359;53.596;22.520;2023-03-01T08:13:52;13.70;;;9.37;;
20399;SDS011;10359;53.596;22.520;2023-03-01T08:16:43;17.47;;;9.97;;
20399;SDS011;10359;53.596;22.520;2023-03-01T08:19:33;16.87;;;9.83;;
20399;SDS011;10359;53.596;22.520;2023-03-01T08:22:23;17.70;;;9.73;;
20399;SDS011;10359;53.596;22.520;2023-03-01T08:25:13;15.30;;;9.47;;
20399;SDS011;10359;53.596;22.520;2023-03-01T08:28:04;15.80;;;9.47;;
20399;SDS011;10359;53.596;22.520;2023-03-01T08:30:56;16.03;;;9.43;;
20399;SDS011;10359;53.596;22.520;2023-03-01T08:33:46;15.23;;;9.97;;
20399;SDS011;10359;53.596;22.520;2023-03-01T08:36:42;17.13;;;10.40;;
20399;SDS011;10359;53.596;22.520;2023-03-01T08:39:33;19.33;;;11.00;;
20399;SDS011;10359;53.596;22.520;2023-03-01T08:42:23;18.37;;;10.97;;
20399;SDS011;10359;53.596;22.520;2023-03-01T08:45:14;15.90;;;10.77;;
20399;SDS011;10359;53.596;22.520;2023-03-01T08:48:07;15.80;;;10.77;;
20399;SDS011;10359;53.596;22.520;2023-03-01T08:51:05;20.60;;;12.17;;
20399;SDS011;10359;53.596;22.520;2023-03-01T08:53:56;15.60;;;10.27;;
20399;SDS011;10359;53.596;22.520;2023-03-01T08:56:46;19.70;;;11.60;;
20399;SDS011;10359;53.596;22.520;2023-03-01T08:59:36;22.13;;;12.33;;
20399;SDS011;10359;53.596;22.520;2023-03-01T09:02:26;18.60;;;11.37;;
20399;SDS011;10359;53.596;22.520;2023-03-01T09:05:17;20.27;;;11.53;;
20399;SDS011;10359;53.596;22.520;2023-03-01T09:08:09;18.27;;;11.00;;
20399;SDS011;10359;53.596;22.520;2023-03-01T09:11:01;18.20;;;11.03;;
20399;SDS011;10359;53.596;22.520;2023-03-01T09:13:51;16.90;;;10.80;;
20399;SDS011;10359;53.596;22.520;2023-03-01T09:16:42;16.97;;;9.93;;
20399;SDS011;10359;53.596;22.520;2023-03-01T09:19:32;18.73;;;11.20;;
20399;SDS011;10359;53.596;22.520;2023-03-01T09:22:25;20.00;;;11.07;;
20399;SDS011;10359;53.596;22.520;2023-03-01T09:25:24;17.43;;;11.23;;
20399;SDS011;10359;53.596;22.520;2023-03-01T09:28:22;18.37;;;10.37;;
20399;SDS011;10359;53.596;22.520;2023-03-01T09:31:20;15.57;;;9.80;;
20399;SDS011;10359;53.596;22.520;2023-03-01T09:34:16;16.70;;;10.43;;
20399;SDS011;10359;53.596;22.520;2023-03-01T09:37:10;14.87;;;10.53;;
20399;SDS011;10359;53.596;22.520;2023-03-01T09:40:04;17.73;;;9.93;;
20399;SDS011;10359;53.596;22.520;2023-03-01T09:42:58;16.60;;;10.27;;
20399;SDS011;10359;53.596;22.520;2023-03-01T09:45:55;15.30;;;10.27;;
20399;SDS011;10359;53.596;22.520;2023-03-01T09:48:49;16.83;;;9.63;;
20399;SDS011;10359;53.596;22.520;2023-03-01T09:51:42;15.80;;;11.07;;
20399;SDS011;10359;53.596;22.520;2023-03-01T09:54:36;17.33;;;9.97;;
20399;SDS011;10359;53.596;22.520;2023-03-01T09:57:30;15.53;;;10.10;;
20399;SDS011;10359;53.596;22.520;2023-03-01T10:00:28;16.03;;;9.93;;
20399;SDS011;10359;53.596;22.520;2023-03-01T10:03:27;16.20;;;10.67;;
20399;SDS011;10359;53.596;22.520;2023-03-01T10:06:22;20.40;;;10.87;;
20399;SDS011;10359;53.596;22.520;2023-03-01T10:09:21;17.23;;;10.67;;
20399;SDS011;10359;53.596;22.520;2023-03-01T10:12:11;15.17;;;10.00;;
20399;SDS011;10359;53.596;22.520;2023-03-01T10:15:06;13.97;;;9.20;;
20399;SDS011;10359;53.596;22.520;2023-03-01T10:18:01;16.83;;;10.40;;
20399;SDS011;10359;53.596;22.520;2023-03-01T10:20:55;17.17;;;9.63;;
20399;SDS011;10359;53.596;22.520;2023-03-01T10:23:49;15.27;;;9.80;;
20399;SDS011;10359;53.596;22.520;2023-03-01T10:26:44;15.40;;;9.60;;
20399;SDS011;10359;53.596;22.520;2023-03-01T10:29:42;14.60;;;9.57;;
20399;SDS011;10359;53.596;22.520;2023-03-01T10:32:39;15.57;;;9.43;;
20399;SDS011;10359;53.596;22.520;2023-03-01T10:35:31;16.73;;;10.10;;
20399;SDS011;10359;53.596;22.520;2023-03-01T10:38:23;14.60;;;10.30;;
20399;SDS011;10359;53.596;22.520;2023-03-01T10:41:14;14.43;;;9.67;;
20399;SDS011;10359;53.596;22.520;2023-03-01T10:44:04;15.77;;;10.30;;
20399;SDS011;10359;53.596;22.520;2023-03-01T10:46:58;15.57;;;10.00;;
20399;SDS011;10359;53.596;22.520;2023-03-01T10:49:59;15.93;;;9.63;;
20399;SDS011;10359;53.596;22.520;2023-03-01T10:52:58;14.20;;;9.80;;
20399;SDS011;10359;53.596;22.520;2023-03-01T10:55:59;15.97;;;9.73;;
20399;SDS011;10359;53.596;22.520;2023-03-01T10:58:57;16.53;;;10.47;;
20399;SDS011;10359;53.596;22.520;2023-03-01T11:01:49;14.80;;;10.43;;
20399;SDS011;10359;53.596;22.520;2023-03-01T11:09:01;15.27;;;10.23;;
20399;SDS011;10359;53.596;22.520;2023-03-01T11:12:03;15.43;;;10.10;;
20399;SDS011;10359;53.596;22.520;2023-03-01T11:18:34;16.70;;;11.03;;
20399;SDS011;10359;53.596;22.520;2023-03-01T11:21:35;17.57;;;11.00;;
20399;SDS011;10359;53.596;22.520;2023-03-01T11:24:33;13.60;;;10.13;;
20399;SDS011;10359;53.596;22.520;2023-03-01T11:27:30;17.53;;;11.83;;
20399;SDS011;10359;53.596;22.520;2023-03-01T11:30:26;15.40;;;10.23;;
20399;SDS011;10359;53.596;22.520;2023-03-01T11:33:20;15.37;;;10.33;;
20399;SDS011;10359;53.596;22.520;2023-03-01T11:36:23;14.47;;;10.20;;
20399;SDS011;10359;53.596;22.520;2023-03-01T11:39:20;15.33;;;10.13;;
20399;SDS011;10359;53.596;22.520;2023-03-01T11:42:20;14.77;;;9.90;;
20399;SDS011;10359;53.596;22.520;2023-03-01T11:45:13;12.77;;;9.57;;
20399;SDS011;10359;53.596;22.520;2023-03-01T11:48:07;11.70;;;8.43;;
20399;SDS011;10359;53.596;22.520;2023-03-01T11:51:38;10.77;;;7.97;;
20399;SDS011;10359;53.596;22.520;2023-03-01T11:54:39;12.40;;;8.47;;
20399;SDS011;10359;53.596;22.520;2023-03-01T11:57:47;15.23;;;9.80;;
20399;SDS011;10359;53.596;22.520;2023-03-01T12:00:52;14.20;;;9.97;;
20399;SDS011;10359;53.596;22.520;2023-03-01T12:03:55;13.13;;;9.80;;
20399;SDS011;10359;53.596;22.520;2023-03-01T12:07:04;14.53;;;9.40;;
20399;SDS011;10359;53.596;22.520;2023-03-01T12:10:04;15.40;;;10.03;;
20399;SDS011;10359;53.596;22.520;2023-03-01T12:16:39;15.60;;;9.77;;
20399;SDS011;10359;53.596;22.520;2023-03-01T12:19:51;14.13;;;9.73;;
20399;SDS011;10359;53.596;22.520;2023-03-01T12:23:06;13.13;;;9.60;;
20399;SDS011;10359;53.596;22.520;2023-03-01T12:26:29;18.13;;;11.07;;
20399;SDS011;10359;53.596;22.520;2023-03-01T12:29:27;16.03;;;10.00;;
20399;SDS011;10359;53.596;22.520;2023-03-01T12:32:28;16.90;;;10.03;;
20399;SDS011;10359;53.596;22.520;2023-03-01T12:35:28;18.30;;;12.23;;
20399;SDS011;10359;53.596;22.520;2023-03-01T12:38:37;14.50;;;10.50;;
20399;SDS011;10359;53.596;22.520;2023-03-01T12:41:37;17.37;;;11.03;;
20399;SDS011;10359;53.596;22.520;2023-03-01T12:48:08;18.83;;;12.00;;
20399;SDS011;10359;53.596;22.520;2023-03-01T12:51:08;17.57;;;11.80;;
20399;SDS011;10359;53.596;22.520;2023-03-01T12:54:05;15.70;;;11.20;;
20399;SDS011;10359;53.596;22.520;2023-03-01T12:57:06;16.83;;;10.97;;
20399;SDS011;10359;53.596;22.520;2023-03-01T13:00:03;16.83;;;11.63;;
20399;SDS011;10359;53.596;22.520;2023-03-01T13:03:14;16.67;;;11.20;;
20399;SDS011;10359;53.596;22.520;2023-03-01T13:06:15;17.13;;;11.47;;
20399;SDS011;10359;53.596;22.520;2023-03-01T13:09:24;20.23;;;12.80;;
20399;SDS011;10359;53.596;22.520;2023-03-01T13:15:36;17.37;;;10.77;;
20399;SDS011;10359;53.596;22.520;2023-03-01T13:18:28;19.33;;;13.17;;
20399;SDS011;10359;53.596;22.520;2023-03-01T13:21:29;19.90;;;13.63;;
20399;SDS011;10359;53.596;22.520;2023-03-01T13:24:24;17.80;;;11.90;;
20399;SDS011;10359;53.596;22.520;2023-03-01T13:27:21;19.80;;;11.93;;
20399;SDS011;10359;53.596;22.520;2023-03-01T13:33:41;14.57;;;10.40;;
20399;SDS011;10359;53.596;22.520;2023-03-01T13:36:47;14.70;;;10.33;;
20399;SDS011;10359;53.596;22.520;2023-03-01T13:39:39;16.17;;;10.27;;
20399;SDS011;10359;53.596;22.520;2023-03-01T13:42:42;13.70;;;10.07;;
20399;SDS011;10359;53.596;22.520;2023-03-01T13:45:50;15.43;;;10.73;;
20399;SDS011;10359;53.596;22.520;2023-03-01T13:48:42;17.07;;;11.33;;
20399;SDS011;10359;53.596;22.520;2023-03-01T13:51:34;16.57;;;11.67;;
20399;SDS011;10359;53.596;22.520;2023-03-01T13:54:26;17.37;;;12.20;;
20399;SDS011;10359;53.596;22.520;2023-03-01T13:57:18;18.47;;;13.00;;
20399;SDS011;10359;53.596;22.520;2023-03-01T14:00:24;16.93;;;11.83;;
20399;SDS011;10359;53.596;22.520;2023-03-01T14:03:20;17.90;;;12.40;;
20399;SDS011;10359;53.596;22.520;2023-03-01T14:06:12;16.97;;;11.10;;
20399;SDS011;10359;53.596;22.520;2023-03-01T14:09:09;16.67;;;11.67;;
20399;SDS011;10359;53.596;22.520;2023-03-01T14:12:08;15.03;;;10.20;;
20399;SDS011;10359;53.596;22.520;2023-03-01T14:15:14;14.00;;;10.53;;
20399;SDS011;10359;53.596;22.520;2023-03-01T14:18:08;16.73;;;10.50;;
20399;SDS011;10359;53.596;22.520;2023-03-01T14:21:07;13.63;;;9.33;;
20399;SDS011;10359;53.596;22.520;2023-03-01T14:23:57;14.70;;;10.00;;
20399;SDS011;10359;53.596;22.520;2023-03-01T14:26:48;13.80;;;9.53;;
20399;SDS011;10359;53.596;22.520;2023-03-01T14:29:39;13.77;;;9.70;;
20399;SDS011;10359;53.596;22.520;2023-03-01T14:32:30;13.03;;;9.20;;
20399;SDS011;10359;53.596;22.520;2023-03-01T14:35:21;13.13;;;8.70;;
20399;SDS011;10359;53.596;22.520;2023-03-01T14:38:21;12.97;;;9.10;;
20399;SDS011;10359;53.596;22.520;2023-03-01T14:41:14;12.80;;;8.87;;
20399;SDS011;10359;53.596;22.520;2023-03-01T14:44:06;12.53;;;9.00;;
20399;SDS011;10359;53.596;22.520;2023-03-01T14:47:01;11.63;;;9.17;;
20399;SDS011;10359;53.596;22.520;2023-03-01T14:49:52;12.00;;;8.60;;
20399;SDS011;10359;53.596;22.520;2023-03-01T14:52:46;13.77;;;9.60;;
20399;SDS011;10359;53.596;22.520;2023-03-01T14:55:41;12.70;;;9.23;;
20399;SDS011;10359;53.596;22.520;2023-03-01T14:58:33;14.37;;;10.43;;
20399;SDS011;10359;53.596;22.520;2023-03-01T15:01:23;14.10;;;9.37;;
20399;SDS011;10359;53.596;22.520;2023-03-01T15:04:13;13.73;;;9.73;;
20399;SDS011;10359;53.596;22.520;2023-03-01T15:07:03;12.33;;;9.30;;
20399;SDS011;10359;53.596;22.520;2023-03-01T15:09:54;15.30;;;9.73;;
20399;SDS011;10359;53.596;22.520;2023-03-01T15:12:45;11.63;;;9.23;;
20399;SDS011;10359;53.596;22.520;2023-03-01T15:15:36;14.43;;;9.87;;
20399;SDS011;10359;53.596;22.520;2023-03-01T15:18:30;15.47;;;9.80;;
20399;SDS011;10359;53.596;22.520;2023-03-01T15:21:21;14.00;;;9.80;;
20399;SDS011;10359;53.596;22.520;2023-03-01T15:24:16;12.53;;;8.97;;
20399;SDS011;10359;53.596;22.520;2023-03-01T15:27:13;15.90;;;9.37;;
20399;SDS011;10359;53.596;22.520;2023-03-01T15:30:13;15.67;;;9.83;;
20399;SDS011;10359;53.596;22.520;2023-03-01T15:33:17;13.90;;;9.67;;
20399;SDS011;10359;53.596;22.520;2023-03-01T15:36:29;15.33;;;9.50;;
20399;SDS011;10359;53.596;22.520;2023-03-01T15:39:33;14.63;;;9.47;;
20399;SDS011;10359;53.596;22.520;2023-03-01T15:42:40;14.60;;;10.23;;
20399;SDS011;10359;53.596;22.520;2023-03-01T15:45:36;12.43;;;9.13;;
20399;SDS011;10359;53.596;22.520;2023-03-01T15:48:34;13.73;;;10.07;;
20399;SDS011;10359;53.596;22.520;2023-03-01T15:51:32;17.57;;;11.07;;
20399;SDS011;10359;53.596;22.520;2023-03-01T15:54:24;16.50;;;10.37;;
20399;SDS011;10359;53.596;22.520;2023-03-01T15:57:19;14.57;;;10.10;;
20399;SDS011;10359;53.596;22.520;2023-03-01T16:00:09;13.10;;;10.17;;
20399;SDS011;10359;53.596;22.520;2023-03-01T16:03:04;15.20;;;11.10;;
20399;SDS011;10359;53.596;22.520;2023-03-01T16:05:54;17.23;;;11.33;;
20399;SDS011;10359;53.596;22.520;2023-03-01T16:08:46;13.63;;;10.17;;
20399;SDS011;10359;53.596;22.520;2023-03-01T16:11:35;14.17;;;9.37;;
20399;SDS011;10359;53.596;22.520;2023-03-01T16:14:28;14.63;;;10.27;;
20399;SDS011;10359;53.596;22.520;2023-03-01T16:17:18;14.13;;;9.90;;
20399;SDS011;10359;53.596;22.520;2023-03-01T16:20:12;14.37;;;10.53;;
20399;SDS011;10359;53.596;22.520;2023-03-01T16:23:14;13.97;;;10.43;;
20399;SDS011;10359;53.596;22.520;2023-03-01T16:26:04;14.93;;;9.23;;
20399;SDS011;10359;53.596;22.520;2023-03-01T16:28:54;16.63;;;9.10;;
20399;SDS011;10359;53.596;22.520;2023-03-01T16:31:46;14.23;;;9.77;;
20399;SDS011;10359;53.596;22.520;2023-03-01T16:34:37;11.90;;;8.47;;
20399;SDS011;10359;53.596;22.520;2023-03-01T16:37:33;13.40;;;8.57;;
20399;SDS011;10359;53.596;22.520;2023-03-01T16:40:25;11.77;;;8.00;;
20399;SDS011;10359;53.596;22.520;2023-03-01T16:43:19;10.90;;;8.40;;
20399;SDS011;10359;53.596;22.520;2023-03-01T16:46:10;12.30;;;8.50;;
20399;SDS011;10359;53.596;22.520;2023-03-01T16:49:00;13.57;;;8.33;;
20399;SDS011;10359;53.596;22.520;2023-03-01T16:51:51;10.50;;;7.90;;
20399;SDS011;10359;53.596;22.520;2023-03-01T16:54:44;14.00;;;9.03;;
20399;SDS011;10359;53.596;22.520;2023-03-01T16:57:34;12.33;;;8.50;;
20399;SDS011;10359;53.596;22.520;2023-03-01T17:00:25;14.00;;;8.83;;
20399;SDS011;10359;53.596;22.520;2023-03-01T17:03:16;12.53;;;8.17;;
20399;SDS011;10359;53.596;22.520;2023-03-01T17:06:06;14.20;;;8.77;;
20399;SDS011;10359;53.596;22.520;2023-03-01T17:08:59;12.90;;;8.97;;
20399;SDS011;10359;53.596;22.520;2023-03-01T17:11:52;13.50;;;9.27;;
20399;SDS011;10359;53.596;22.520;2023-03-01T17:14:44;14.23;;;8.93;;
20399;SDS011;10359;53.596;22.520;2023-03-01T17:17:36;12.83;;;9.13;;